Time;durP1;ratioP1;P1;durP2;ratioP2;P2;SDS_P1;SDS_P2;PMS_P1;PMS_P2;Temp;Humidity;BMP_temperature;BMP_pressure;BME280_temperature;BME280_humidity;BME280_pressure;Samples;Min_cycle;Max_cycle;Signal;HPM_P1;HPM_P2
2022/06/03 00:01:54;;;;;;;9.00;5.68;;;;;;;21.11;58.52;95246.91;4967425;28;20217;-64
2022/06/03 00:04:23;;;;;;;6.13;5.53;;;;;;;21.15;58.25;95234.75;4874684;29;20237;-65
2022/06/03 00:07:10;;;;;;;5.95;4.97;;;;;;;21.25;58.04;95238.81;4875580;29;20239;-66
2022/06/03 00:10:13;;;;;;;8.27;5.47;;;;;;;21.29;57.94;95232.84;4890910;29;20333;-68
2022/06/03 00:12:55;;;;;;;8.02;5.60;;;;;;;21.27;57.78;95242.94;4881321;29;20231;-65
2022/06/03 00:15:20;;;;;;;7.97;5.80;;;;;;;20.70;59.50;95237.38;4873559;29;20753;-69
2022/06/03 00:18:07;;;;;;;9.57;6.32;;;;;;;20.64;60.23;95237.41;4888621;29;20650;-68
2022/06/03 00:20:57;;;;;;;9.40;5.88;;;;;;;20.85;59.78;95234.47;4887202;29;20230;-63
2022/06/03 00:23:28;;;;;;;8.75;5.80;;;;;;;21.06;59.27;95232.53;4875954;29;20230;-67
2022/06/03 00:26:10;;;;;;;11.07;5.95;;;;;;;21.09;58.89;95232.94;4888162;29;20232;-69
2022/06/03 00:28:52;;;;;;;7.32;5.75;;;;;;;21.00;59.69;95230.72;4925218;29;20313;-67
2022/06/03 00:31:27;;;;;;;9.18;5.40;;;;;;;20.92;59.52;95239.78;4930313;29;20205;-65
2022/06/03 00:33:58;;;;;;;9.38;6.20;;;;;;;21.10;58.92;95226.56;4925025;29;20223;-65
2022/06/03 00:37:00;;;;;;;9.98;5.90;;;;;;;21.01;59.09;95233.19;4925344;29;20240;-67
2022/06/03 00:39:29;;;;;;;9.32;5.63;;;;;;;20.91;59.37;95236.28;4925821;29;20312;-68
2022/06/03 00:42:21;;;;;;;7.15;4.97;;;;;;;21.02;59.20;95234.00;4998649;28;21329;-66
2022/06/03 00:45:17;;;;;;;8.70;5.32;;;;;;;20.98;59.30;95238.94;4985696;28;20266;-65
2022/06/03 00:47:59;;;;;;;10.05;5.95;;;;;;;20.87;59.89;95237.72;4991464;28;20254;-63
2022/06/03 00:51:02;;;;;;;7.22;6.28;;;;;;;20.80;60.36;95233.47;4968461;28;20504;-68
2022/06/03 00:53:49;;;;;;;8.70;5.55;;;;;;;20.81;60.46;95235.09;5005609;28;20238;-66
2022/06/03 00:56:23;;;;;;;7.15;5.30;;;;;;;20.76;60.59;95232.22;4980262;28;20223;-65
2022/06/03 00:59:16;;;;;;;8.57;5.82;;;;;;;20.69;60.52;95230.41;4975435;28;20476;-62
2022/06/03 01:01:53;;;;;;;9.02;5.97;;;;;;;20.75;60.51;95230.59;5005883;28;20227;-67
2022/06/03 01:04:52;;;;;;;8.82;5.78;;;;;;;20.77;60.37;95231.19;5008836;28;20207;-68
2022/06/03 01:07:41;;;;;;;7.85;5.82;;;;;;;20.66;60.68;95220.13;5008838;28;20239;-66
2022/06/03 01:10:06;;;;;;;13.05;5.78;;;;;;;20.60;60.61;95217.47;4990215;28;20286;-65
2022/06/03 01:12:42;;;;;;;8.05;5.75;;;;;;;20.49;60.84;95217.03;4970871;28;20355;-64
2022/06/03 01:15:28;;;;;;;8.98;5.38;;;;;;;20.50;61.21;95215.19;4975565;28;20273;-65
2022/06/03 01:18:14;;;;;;;8.50;5.30;;;;;;;20.52;61.52;95220.31;4986106;28;20230;-62
2022/06/03 01:21:11;;;;;;;7.68;5.43;;;;;;;20.59;61.25;95219.31;4994738;28;20290;-68
2022/06/03 01:23:42;;;;;;;8.82;6.15;;;;;;;20.55;61.16;95215.41;5013506;28;20302;-64
2022/06/03 01:26:14;;;;;;;7.00;5.85;;;;;;;20.24;62.34;95214.22;5013948;28;20223;-69
2022/06/03 01:29:12;;;;;;;6.57;5.43;;;;;;;20.37;61.99;95215.19;5003239;28;20215;-64
2022/06/03 01:32:02;;;;;;;7.63;5.95;;;;;;;20.33;62.00;95204.13;5040018;28;20231;-68
2022/06/03 01:34:42;;;;;;;7.75;5.95;;;;;;;20.15;62.81;95212.75;5013972;28;20206;-68
2022/06/03 01:37:33;;;;;;;6.55;5.72;;;;;;;20.43;61.80;95209.06;5049557;28;20226;-69
2022/06/03 01:40:22;;;;;;;10.07;6.25;;;;;;;20.25;61.93;95215.03;5010388;28;20215;-69
2022/06/03 01:43:06;;;;;;;7.20;5.30;;;;;;;20.31;61.89;95227.53;4971730;28;20223;-66
2022/06/03 01:46:05;;;;;;;8.05;5.80;;;;;;;20.11;62.77;95221.41;4985723;28;20317;-65
2022/06/03 01:48:33;;;;;;;8.30;5.57;;;;;;;20.15;62.46;95214.63;4988256;28;20234;-66
2022/06/03 01:51:23;;;;;;;6.63;5.97;;;;;;;20.10;62.60;95219.75;4989996;28;20238;-62
2022/06/03 01:54:18;;;;;;;10.52;5.90;;;;;;;20.16;62.16;95214.41;5006525;28;20222;-65
2022/06/03 01:56:58;;;;;;;8.15;5.63;;;;;;;19.98;62.95;95224.91;4993804;28;20265;-63
2022/06/03 02:00:03;;;;;;;8.88;6.13;;;;;;;19.94;63.48;95220.97;4991890;28;20250;-67
2022/06/03 02:03:09;;;;;;;9.40;6.22;;;;;;;20.06;62.97;95224.69;4989871;28;20310;-68
2022/06/03 02:05:43;;;;;;;8.77;6.38;;;;;;;20.23;61.93;95233.09;4912252;29;20308;-67
2022/06/03 02:08:15;;;;;;;9.43;7.10;;;;;;;20.03;62.61;95225.91;4927484;29;20248;-67
2022/06/03 02:11:05;;;;;;;11.40;6.20;;;;;;;19.89;63.43;95234.09;4928263;29;20229;-67
2022/06/03 02:14:04;;;;;;;11.80;6.57;;;;;;;19.82;63.75;95237.59;4930534;29;20217;-64
2022/06/03 02:16:41;;;;;;;8.07;6.25;;;;;;;19.85;63.77;95230.22;4929355;29;20218;-68
2022/06/03 02:19:44;;;;;;;8.77;6.82;;;;;;;19.78;64.08;95239.06;4930382;29;20217;-64
2022/06/03 02:22:21;;;;;;;9.90;7.15;;;;;;;19.91;63.67;95243.56;4948524;28;20225;-67
2022/06/03 02:25:22;;;;;;;8.20;6.60;;;;;;;19.67;64.41;95239.63;4952510;28;20225;-63
2022/06/03 02:27:57;;;;;;;9.02;6.82;;;;;;;19.73;64.36;95228.16;4946678;28;20244;-63
2022/06/03 02:30:34;;;;;;;9.30;6.57;;;;;;;19.81;64.19;95238.63;4933437;29;20240;-64
2022/06/03 02:33:09;;;;;;;9.00;6.47;;;;;;;19.64;64.68;95232.00;4950885;28;20325;-64
2022/06/03 02:35:46;;;;;;;9.02;6.43;;;;;;;19.66;64.71;95234.47;4934468;29;20229;-67
2022/06/03 02:38:49;;;;;;;10.40;6.40;;;;;;;19.68;64.65;95243.97;4932473;29;20234;-63
2022/06/03 02:41:45;;;;;;;7.65;6.78;;;;;;;19.71;64.62;95248.88;4948205;28;20374;-67
2022/06/03 02:44:30;;;;;;;9.85;6.85;;;;;;;19.73;64.53;95238.84;5001429;28;20263;-65
2022/06/03 02:47:05;;;;;;;10.25;6.57;;;;;;;19.75;64.55;95244.78;5002625;28;21384;-68
2022/06/03 02:49:48;;;;;;;11.48;6.88;;;;;;;19.58;65.25;95248.81;5002326;28;20312;-64
2022/06/03 02:52:50;;;;;;;10.15;7.22;;;;;;;19.66;64.95;95245.16;5001444;28;20218;-64
2022/06/03 02:55:49;;;;;;;15.02;7.18;;;;;;;19.60;65.02;95249.44;4925941;29;20228;-65
2022/06/03 02:58:39;;;;;;;7.13;6.40;;;;;;;19.66;64.60;95256.66;4941468;29;20256;-67
2022/06/03 03:01:13;;;;;;;9.45;7.15;;;;;;;19.77;64.39;95261.41;4945747;29;20224;-68
2022/06/03 03:04:00;;;;;;;11.18;7.00;;;;;;;19.76;64.19;95246.44;4925194;29;20229;-64
2022/06/03 03:06:58;;;;;;;10.68;7.03;;;;;;;19.67;64.32;95260.16;4937375;28;20233;-67
2022/06/03 03:09:55;;;;;;;9.55;6.85;;;;;;;19.24;66.32;95253.22;4958960;28;20229;-68
2022/06/03 03:12:39;;;;;;;7.35;6.63;;;;;;;19.38;65.95;95256.78;4954210;28;20261;-68
2022/06/03 03:15:33;;;;;;;8.77;7.47;;;;;;;19.36;65.72;95254.31;4940144;28;20261;-69
2022/06/03 03:18:26;;;;;;;14.18;7.25;;;;;;;19.67;64.57;95249.47;4937920;28;20222;-68
2022/06/03 03:21:14;;;;;;;14.98;7.13;;;;;;;19.64;64.47;95241.84;4934575;28;20257;-69
2022/06/03 03:23:49;;;;;;;11.80;7.65;;;;;;;19.61;64.60;95245.75;4926287;28;20232;-68
2022/06/03 03:26:59;;;;;;;9.02;7.35;;;;;;;19.66;64.57;95251.34;4960386;28;20225;-68
2022/06/03 03:29:51;;;;;;;8.93;7.50;;;;;;;19.71;64.23;95254.22;4912292;29;20806;-64
2022/06/03 03:32:16;;;;;;;9.50;6.75;;;;;;;19.63;64.59;95266.91;4921592;28;20225;-64
2022/06/03 03:34:45;;;;;;;15.05;8.82;;;;;;;19.53;65.15;95261.94;4946094;28;20224;-66
2022/06/03 03:37:29;;;;;;;7.55;6.85;;;;;;;19.57;65.11;95260.53;4945203;28;20212;-67
2022/06/03 03:40:03;;;;;;;11.02;8.45;;;;;;;19.86;63.63;95271.88;4972413;28;20232;-63
2022/06/03 03:42:38;;;;;;;10.85;7.63;;;;;;;19.77;63.89;95269.41;4979823;28;20305;-65
2022/06/03 03:45:54;;;;;;;9.27;7.32;;;;;;;19.95;63.36;95273.34;4977761;28;20318;-64
2022/06/03 03:49:00;;;;;;;11.73;7.82;;;;;;;19.82;63.73;95271.47;4915429;29;20247;-68
2022/06/03 03:51:58;;;;;;;8.60;6.80;;;;;;;19.91;63.45;95275.56;4909715;29;20240;-63
2022/06/03 03:55:02;;;;;;;11.75;8.30;;;;;;;19.96;63.26;95277.66;4927140;29;20230;-68
2022/06/03 03:57:39;;;;;;;8.55;7.63;;;;;;;20.10;62.78;95271.31;4911405;29;20272;-64
2022/06/03 04:00:23;;;;;;;11.52;8.23;;;;;;;20.09;62.70;95277.66;4910337;29;20260;-66
2022/06/03 04:03:16;;;;;;;13.05;8.23;;;;;;;20.14;62.72;95282.41;4928358;29;20352;-67
2022/06/03 04:05:44;;;;;;;12.43;9.63;;;;;;;20.30;61.94;95282.00;4934064;28;20299;-66
2022/06/03 04:08:14;;;;;;;11.60;8.65;;;;;;;20.26;61.97;95284.25;4933267;28;20232;-67
2022/06/03 04:11:10;;;;;;;10.43;9.00;;;;;;;20.29;62.22;95277.69;4933053;28;20220;-63
2022/06/03 04:13:59;;;;;;;10.82;9.68;;;;;;;20.24;62.33;95264.13;4933870;28;20216;-64
2022/06/03 04:16:28;;;;;;;10.25;9.15;;;;;;;20.19;62.82;95271.94;4934348;28;20225;-63
2022/06/03 04:19:28;;;;;;;11.15;9.70;;;;;;;20.21;63.39;95272.56;4936644;28;20225;-65
2022/06/03 04:22:11;;;;;;;11.73;9.35;;;;;;;20.20;63.84;95277.03;4943360;28;20272;-66
2022/06/03 04:24:45;;;;;;;10.07;9.02;;;;;;;20.28;63.37;95276.84;4997532;28;20226;-64
2022/06/03 04:27:24;;;;;;;11.15;8.52;;;;;;;20.38;63.13;95280.97;5006353;28;20721;-65
2022/06/03 04:30:27;;;;;;;13.07;8.43;;;;;;;20.50;62.80;95284.63;5003912;28;20245;-61
2022/06/03 04:33:13;;;;;;;13.82;9.10;;;;;;;20.62;62.55;95293.72;5042949;28;20253;-66
2022/06/03 04:36:15;;;;;;;10.65;8.85;;;;;;;20.64;62.58;95301.53;5017654;28;20226;-68
2022/06/03 04:39:16;;;;;;;12.80;8.48;;;;;;;20.67;62.96;95306.44;5009700;28;20277;-63
2022/06/03 04:42:06;;;;;;;11.13;9.20;;;;;;;20.88;61.54;95311.56;5037183;28;20223;-63
2022/06/03 04:45:00;;;;;;;15.38;8.65;;;;;;;20.92;61.37;95304.75;4994329;28;20231;-62
2022/06/03 04:47:43;;;;;;;14.23;8.85;;;;;;;20.96;61.08;95305.16;5035472;28;20285;-62
2022/06/03 04:50:30;;;;;;;11.20;9.35;;;;;;;21.00;61.18;95311.72;5001221;28;20226;-63
2022/06/03 04:53:01;;;;;;;12.60;9.18;;;;;;;20.87;61.13;95317.91;5015047;28;20262;-61
2022/06/03 04:55:45;;;;;;;10.60;9.45;;;;;;;21.15;60.34;95324.88;5018190;28;20202;-68
2022/06/03 04:58:35;;;;;;;12.27;8.85;;;;;;;21.10;60.49;95316.66;4994643;28;20203;-65
2022/06/03 05:01:25;;;;;;;15.98;8.93;;;;;;;20.99;60.19;95323.47;5034603;28;20227;-63
2022/06/03 05:04:23;;;;;;;11.57;9.00;;;;;;;20.97;60.27;95327.38;5024663;28;20317;-63
2022/06/03 05:07:42;;;;;;;11.10;8.65;;;;;;;21.02;60.40;95331.06;5034827;28;20270;-67
2022/06/03 05:10:32;;;;;;;12.15;8.30;;;;;;;21.09;60.65;95326.53;4983888;28;20238;-66
2022/06/03 05:13:04;;;;;;;12.90;8.95;;;;;;;21.25;60.27;95329.75;4968672;28;20741;-63
2022/06/03 05:16:13;;;;;;;13.07;8.55;;;;;;;21.26;60.13;95326.06;4957414;28;20227;-67
2022/06/03 05:18:44;;;;;;;10.50;7.70;;;;;;;21.37;60.23;95338.78;4932062;28;20243;-65
2022/06/03 05:21:31;;;;;;;10.38;7.95;;;;;;;21.43;59.90;95331.78;4951135;28;20263;-68
2022/06/03 05:24:17;;;;;;;10.77;8.68;;;;;;;21.49;60.01;95331.78;4936289;28;20240;-67
2022/06/03 05:27:01;;;;;;;11.52;8.20;;;;;;;21.45;60.16;95333.22;4938270;28;20239;-68
2022/06/03 05:30:03;;;;;;;12.23;8.93;;;;;;;21.60;59.31;95338.31;4934817;28;20228;-65
2022/06/03 05:33:06;;;;;;;13.73;8.00;;;;;;;21.70;58.83;95330.63;4949932;28;20224;-68
2022/06/03 05:35:31;;;;;;;11.85;7.35;;;;;;;21.75;59.05;95336.19;4930978;28;20269;-66
2022/06/03 05:38:28;;;;;;;10.98;8.07;;;;;;;21.83;59.08;95339.66;4928080;29;20232;-62
2022/06/03 05:44:40;;;;;;;9.77;6.90;;;;;;;21.93;59.03;95338.16;4959720;28;20290;-65
2022/06/03 05:47:15;;;;;;;13.43;7.05;;;;;;;22.10;58.22;95343.00;4963563;28;20307;-63
2022/06/03 05:50:12;;;;;;;7.65;6.85;;;;;;;22.13;58.29;95334.53;5017057;28;20293;-65
2022/06/03 05:53:07;;;;;;;10.48;6.82;;;;;;;22.22;57.72;95335.94;5036896;28;20298;-65
2022/06/03 05:55:44;;;;;;;9.70;6.85;;;;;;;22.22;57.47;95328.72;4963669;28;20269;-64
2022/06/03 05:58:27;;;;;;;8.07;6.50;;;;;;;22.28;57.47;95326.22;4968641;28;20219;-66
2022/06/03 06:01:11;;;;;;;11.57;6.45;;;;;;;22.34;57.77;95317.31;4966619;28;20223;-68
2022/06/03 06:03:57;;;;;;;10.43;5.70;;;;;;;22.32;57.67;95314.88;4968018;28;20237;-67
2022/06/03 06:06:32;;;;;;;8.85;5.97;;;;;;;22.41;57.37;95315.41;4981994;28;20340;-66
2022/06/03 06:09:09;;;;;;;8.57;6.40;;;;;;;22.46;57.08;95316.41;4969334;28;20278;-68
2022/06/03 06:12:03;;;;;;;6.47;5.80;;;;;;;22.59;56.59;95310.13;4984300;28;20314;-65
2022/06/03 06:14:50;;;;;;;8.52;5.32;;;;;;;22.60;55.88;95306.38;4983905;28;20335;-65
2022/06/03 06:17:37;;;;;;;10.82;5.32;;;;;;;22.67;55.66;95311.69;4960648;28;20227;-68
2022/06/03 06:20:12;;;;;;;10.15;6.32;;;;;;;22.74;55.32;95312.44;4983639;28;20219;-67
2022/06/03 06:22:52;;;;;;;8.88;5.95;;;;;;;22.72;54.70;95308.34;4965428;28;20220;-64
2022/06/03 06:25:39;;;;;;;9.45;6.05;;;;;;;22.75;55.27;95307.88;4969207;28;20211;-66
2022/06/03 06:28:55;;;;;;;7.65;6.32;;;;;;;22.84;56.28;95301.22;4962914;28;20224;-67
2022/06/03 06:31:55;;;;;;;7.78;6.18;;;;;;;22.83;55.74;95300.41;4918267;29;20261;-68
2022/06/03 06:34:44;;;;;;;7.63;6.35;;;;;;;22.93;55.44;95304.44;4908906;29;20214;-64
2022/06/03 06:37:57;;;;;;;8.40;6.05;;;;;;;23.00;56.06;95300.66;4907195;29;20223;-70
2022/06/03 06:40:50;;;;;;;8.27;6.45;;;;;;;23.05;56.00;95302.69;4927038;29;20257;-70
2022/06/03 06:43:38;;;;;;;12.38;7.78;;;;;;;23.10;55.92;95300.97;4907061;29;20214;-69
2022/06/03 06:46:09;;;;;;;8.20;5.47;;;;;;;23.14;56.10;95301.34;4911890;29;20241;-69
2022/06/03 06:48:59;;;;;;;8.23;5.93;;;;;;;23.17;55.23;95287.47;4924210;29;20259;-69
2022/06/03 06:51:35;;;;;;;10.18;5.93;;;;;;;23.24;54.94;95288.22;4923074;29;20543;-70
2022/06/03 06:54:03;;;;;;;10.70;5.40;;;;;;;23.32;53.55;95287.94;4893766;29;20217;-64
2022/06/03 06:56:37;;;;;;;8.80;5.85;;;;;;;23.38;53.83;95296.13;4927379;29;20229;-64
2022/06/03 06:59:17;;;;;;;7.50;5.40;;;;;;;23.41;54.39;95291.13;4911029;29;20295;-69
2022/06/03 07:02:00;;;;;;;7.82;4.97;;;;;;;23.49;52.27;95279.25;4889192;29;20206;-68
2022/06/03 07:04:34;;;;;;;7.82;4.72;;;;;;;23.43;53.94;95282.84;4921539;29;20370;-67
2022/06/03 07:07:13;;;;;;;5.32;4.50;;;;;;;23.51;52.48;95286.03;4931872;29;20249;-67
2022/06/03 07:09:47;;;;;;;6.88;5.32;;;;;;;23.51;53.79;95280.69;4961535;28;20240;-67
2022/06/03 07:12:16;;;;;;;6.97;4.68;;;;;;;23.62;54.38;95284.47;4998085;28;20278;-67
2022/06/03 07:14:55;;;;;;;11.02;5.68;;;;;;;23.76;53.35;95288.66;4997459;28;20219;-62
2022/06/03 07:20:27;;;;;;;9.15;5.28;;;;;;;23.83;52.37;95285.06;5000983;28;20225;-63
2022/06/03 07:22:58;;;;;;;8.35;5.53;;;;;;;23.89;51.33;95286.81;5034477;28;20222;-61
2022/06/03 07:25:56;;;;;;;5.97;4.95;;;;;;;23.90;50.85;95286.59;5009129;28;20211;-63
2022/06/03 07:28:29;;;;;;;8.85;5.38;;;;;;;24.01;51.44;95278.81;4984659;28;20254;-65
2022/06/03 07:31:12;;;;;;;5.80;5.00;;;;;;;23.94;52.54;95281.59;4974660;28;20346;-63
2022/06/03 07:33:47;;;;;;;10.98;6.13;;;;;;;24.06;50.65;95277.06;4973146;28;20253;-62
2022/06/03 07:36:40;;;;;;;10.75;5.28;;;;;;;24.02;50.94;95286.63;4975660;28;20223;-64
2022/06/03 07:39:42;;;;;;;8.00;5.18;;;;;;;24.11;50.86;95284.44;4972248;28;20227;-65
2022/06/03 07:42:16;;;;;;;6.20;5.32;;;;;;;24.08;51.55;95285.69;4944724;28;20220;-65
2022/06/03 07:44:56;;;;;;;9.32;5.53;;;;;;;24.23;49.96;95293.34;4935011;28;20379;-62
2022/06/03 07:47:24;;;;;;;7.00;5.35;;;;;;;24.32;49.78;95293.81;4932844;28;20229;-68
2022/06/03 07:49:57;;;;;;;5.82;5.32;;;;;;;24.38;49.57;95291.06;4944559;28;20233;-63
2022/06/03 07:52:32;;;;;;;8.68;5.55;;;;;;;24.55;48.59;95304.66;4948367;28;20249;-64
2022/06/03 07:54:58;;;;;;;5.60;4.75;;;;;;;24.59;48.03;95297.78;4944103;28;20223;-69
2022/06/03 07:57:27;;;;;;;7.00;5.55;;;;;;;24.73;50.12;95297.53;4942059;28;20363;-67
2022/06/03 08:00:01;;;;;;;6.18;4.55;;;;;;;24.99;48.73;95291.69;4925109;29;20225;-65
2022/06/03 08:02:27;;;;;;;8.98;5.40;;;;;;;25.20;48.38;95298.34;4948096;28;20362;-68
2022/06/03 08:05:09;;;;;;;5.07;4.57;;;;;;;25.27;47.40;95299.03;4938150;28;20221;-64
2022/06/03 08:13:12;;;;;;;7.22;5.20;;;;;;;25.97;45.84;95305.31;4930818;29;20279;-64
2022/06/03 08:15:51;;;;;;;8.15;4.63;;;;;;;25.75;44.27;95310.53;4899882;29;20228;-64
2022/06/03 08:18:21;;;;;;;6.70;4.70;;;;;;;25.91;44.03;95306.28;4933159;28;20225;-67
2022/06/03 08:21:04;;;;;;;10.57;4.93;;;;;;;25.99;45.11;95300.50;5001062;28;20307;-62
2022/06/03 08:23:33;;;;;;;7.05;4.60;;;;;;;26.32;44.69;95309.69;4997684;28;20222;-64
2022/06/03 08:26:03;;;;;;;7.82;4.85;;;;;;;26.36;44.57;95318.94;5035084;28;20237;-70
2022/06/03 08:28:32;;;;;;;7.18;4.97;;;;;;;26.51;43.22;95311.13;5011730;28;20209;-64
2022/06/03 08:31:02;;;;;;;6.82;5.25;;;;;;;26.28;43.66;95322.03;5036581;28;20206;-65
2022/06/03 08:33:38;;;;;;;5.47;4.95;;;;;;;26.36;43.50;95322.47;5013097;28;20223;-62
2022/06/03 08:36:05;;;;;;;6.68;4.57;;;;;;;26.65;43.25;95314.34;5041282;28;20284;-68
2022/06/03 08:38:41;;;;;;;5.72;5.05;;;;;;;26.71;43.53;95313.34;5014758;28;20226;-62
2022/06/03 08:41:14;;;;;;;7.20;4.70;;;;;;;26.56;42.58;95310.41;5007904;28;20279;-69
2022/06/03 08:43:59;;;;;;;6.63;4.60;;;;;;;26.81;42.93;95313.53;4995330;28;20210;-68
2022/06/03 08:46:28;;;;;;;6.40;5.22;;;;;;;26.97;42.36;95317.25;5005834;28;20202;-64
2022/06/03 08:49:05;;;;;;;6.97;4.93;;;;;;;26.63;42.45;95315.66;5037813;28;20198;-63
2022/06/03 08:51:36;;;;;;;7.88;5.00;;;;;;;26.35;42.86;95315.41;5041621;28;20229;-64
2022/06/03 08:54:07;;;;;;;6.28;5.13;;;;;;;26.32;43.78;95315.91;5002135;28;20219;-69
2022/06/03 08:56:37;;;;;;;8.27;4.88;;;;;;;26.59;44.12;95313.41;5044816;28;20228;-69
2022/06/03 08:59:10;;;;;;;6.07;5.45;;;;;;;26.83;43.76;95321.34;5009854;28;20215;-64
2022/06/03 09:01:40;;;;;;;7.32;4.93;;;;;;;26.95;43.84;95315.88;5006588;28;20194;-66
2022/06/03 09:04:22;;;;;;;5.72;5.18;;;;;;;26.93;43.91;95326.09;5043634;28;20213;-68
2022/06/03 09:07:14;;;;;;;8.60;5.60;;;;;;;26.81;43.15;95323.47;5005849;28;20242;-68
2022/06/03 09:10:17;;;;;;;6.35;5.05;;;;;;;26.22;43.88;95323.81;5010549;28;20223;-69
2022/06/03 09:13:07;;;;;;;8.27;5.65;;;;;;;26.15;43.94;95332.06;5012865;28;20230;-67
2022/06/03 09:15:44;;;;;;;5.70;5.20;;;;;;;26.28;44.14;95325.56;5017959;28;20289;-67
2022/06/03 09:18:18;;;;;;;6.32;5.45;;;;;;;26.38;44.56;95331.13;5011091;28;20308;-69
2022/06/03 09:20:52;;;;;;;5.88;4.90;;;;;;;26.70;44.25;95333.28;4997333;28;20218;-64
2022/06/03 09:23:20;;;;;;;8.32;5.10;;;;;;;26.82;43.87;95331.31;5045468;28;20223;-65
2022/06/03 09:25:50;;;;;;;7.28;5.10;;;;;;;26.79;43.86;95331.00;5001526;28;20233;-69
2022/06/03 09:28:24;;;;;;;6.18;5.57;;;;;;;26.87;42.92;95329.78;5041681;28;20218;-64
2022/06/03 09:30:51;;;;;;;8.40;5.47;;;;;;;27.02;42.93;95322.75;5006395;28;20233;-69
2022/06/03 09:33:20;;;;;;;7.20;5.07;;;;;;;27.09;43.39;95336.03;5041894;28;20226;-64
2022/06/03 09:35:48;;;;;;;10.30;6.03;;;;;;;27.15;43.23;95326.94;4999033;28;20269;-64
2022/06/03 09:38:18;;;;;;;9.23;5.80;;;;;;;27.05;42.98;95332.19;5008928;28;20387;-66
2022/06/03 09:40:46;;;;;;;7.22;5.78;;;;;;;26.88;43.72;95331.41;4995557;28;20241;-66
2022/06/03 09:43:23;;;;;;;5.50;5.00;;;;;;;26.97;43.24;95328.06;5012553;28;20206;-68
2022/06/03 09:45:54;;;;;;;6.55;4.57;;;;;;;26.83;42.57;95324.03;5025655;28;20231;-66
2022/06/03 09:48:27;;;;;;;7.53;5.40;;;;;;;26.95;42.27;95330.19;5009529;28;20223;-70
2022/06/03 09:50:56;;;;;;;6.60;4.78;;;;;;;26.97;42.83;95332.63;5007821;28;20227;-66
2022/06/03 09:53:26;;;;;;;5.68;4.53;;;;;;;26.99;41.81;95334.00;5009119;28;20238;-67
2022/06/03 09:55:57;;;;;;;6.25;4.00;;;;;;;27.27;40.50;95321.50;5016017;28;20251;-69
2022/06/03 09:58:28;;;;;;;5.60;4.00;;;;;;;27.18;41.47;95331.88;5010269;28;20696;-66
2022/06/03 10:00:55;;;;;;;6.63;4.32;;;;;;;27.25;41.08;95329.84;5010189;28;20222;-65
2022/06/03 10:03:22;;;;;;;5.53;4.57;;;;;;;27.29;39.35;95330.13;5020609;28;20225;-63
2022/06/03 10:05:51;;;;;;;4.85;4.15;;;;;;;27.09;39.83;95336.03;5011405;28;20241;-65
2022/06/03 10:08:23;;;;;;;7.55;5.40;;;;;;;26.97;40.37;95333.47;5027044;28;20227;-66
2022/06/03 10:13:38;;;;;;;6.53;4.05;;;;;;;26.65;41.13;95330.53;5011190;28;20221;-65
2022/06/03 10:16:07;;;;;;;5.55;4.50;;;;;;;27.31;39.49;95328.00;5010504;28;20209;-65
2022/06/03 10:18:44;;;;;;;5.18;4.57;;;;;;;27.90;38.74;95328.25;5033115;28;20231;-65
2022/06/03 10:21:12;;;;;;;6.88;4.80;;;;;;;28.18;37.97;95317.47;5030764;28;20240;-65
2022/06/03 10:23:44;;;;;;;5.97;4.40;;;;;;;28.18;38.04;95326.38;5014637;28;20269;-65
2022/06/03 10:26:20;;;;;;;6.13;4.53;;;;;;;28.58;38.22;95327.88;5012175;28;20701;-68
2022/06/03 10:28:49;;;;;;;5.60;4.30;;;;;;;28.72;37.62;95320.16;4995159;28;20271;-66
2022/06/03 10:31:18;;;;;;;7.60;4.78;;;;;;;28.93;37.31;95327.34;5012143;28;20245;-63
2022/06/03 10:34:02;;;;;;;6.45;4.95;;;;;;;28.96;37.95;95326.81;5005534;28;20233;-62
2022/06/03 10:36:49;;;;;;;5.43;4.70;;;;;;;29.14;37.80;95322.91;5007908;28;20234;-67
2022/06/03 10:39:20;;;;;;;5.55;4.95;;;;;;;29.17;37.29;95327.00;5000233;28;20249;-68
2022/06/03 10:41:51;;;;;;;5.85;5.00;;;;;;;28.93;37.34;95326.53;4989092;28;20299;-63
2022/06/03 10:44:18;;;;;;;8.20;4.90;;;;;;;28.83;37.81;95324.56;5011714;28;20305;-67
2022/06/03 10:46:59;;;;;;;6.82;5.38;;;;;;;28.57;37.95;95329.78;5010996;28;20264;-65
2022/06/03 10:49:27;;;;;;;6.80;4.93;;;;;;;28.40;38.44;95325.50;5043237;28;20246;-65
2022/06/03 11:03:23;;;;;;;6.00;4.40;;;;;;;28.64;38.20;95307.09;4975364;28;20274;-69
2022/06/03 11:05:48;;;;;;;6.82;4.78;;;;;;;28.97;37.54;95303.25;4975462;28;20314;-66
2022/06/03 11:08:14;;;;;;;8.07;5.40;;;;;;;29.18;37.22;95296.94;4986476;28;20259;-68
2022/06/03 11:10:47;;;;;;;7.60;4.63;;;;;;;29.37;34.88;95296.50;4988522;28;20227;-68
2022/06/03 11:13:24;;;;;;;4.60;4.20;;;;;;;29.36;34.58;95295.69;4990399;28;20306;-65
2022/06/03 11:15:50;;;;;;;4.28;3.70;;;;;;;29.49;31.76;95290.88;4977464;28;20289;-64
2022/06/03 11:18:25;;;;;;;5.95;3.97;;;;;;;29.58;32.35;95286.56;4972392;28;20219;-68
2022/06/03 11:20:52;;;;;;;5.63;3.83;;;;;;;29.66;32.27;95289.59;4973756;28;20237;-66
2022/06/03 11:23:19;;;;;;;4.30;3.90;;;;;;;29.89;34.13;95284.81;4973545;28;20729;-66
2022/06/03 11:25:51;;;;;;;6.80;4.55;;;;;;;30.31;33.85;95281.13;4972499;28;20278;-69
2022/06/03 11:28:19;;;;;;;4.85;4.35;;;;;;;30.66;33.09;95288.47;4978269;28;20318;-64
2022/06/03 11:30:48;;;;;;;4.47;4.07;;;;;;;30.84;32.15;95283.59;4995424;28;20235;-68
2022/06/03 11:33:23;;;;;;;5.95;3.92;;;;;;;30.66;31.95;95274.91;5016264;28;20227;-62
2022/06/03 11:36:06;;;;;;;6.15;4.50;;;;;;;30.36;32.14;95272.16;5006799;28;20227;-64
2022/06/03 11:38:32;;;;;;;7.07;4.40;;;;;;;30.72;32.05;95260.25;4998609;28;20255;-65
2022/06/03 11:41:06;;;;;;;7.00;3.95;;;;;;;30.68;31.30;95253.72;5042768;28;20234;-69
2022/06/03 11:43:38;;;;;;;7.47;5.35;;;;;;;30.89;31.80;95248.28;5009598;28;20210;-65
2022/06/03 11:46:08;;;;;;;5.63;4.22;;;;;;;30.81;31.15;95246.94;5008397;28;20242;-69
2022/06/03 11:48:37;;;;;;;5.40;4.40;;;;;;;31.13;30.50;95253.94;5012317;28;20238;-65
2022/06/03 11:51:07;;;;;;;7.10;3.83;;;;;;;31.37;31.43;95244.13;5040388;28;20223;-68
2022/06/03 11:53:37;;;;;;;5.55;4.55;;;;;;;31.72;30.05;95244.25;5010107;28;20351;-65
2022/06/03 11:56:05;;;;;;;4.50;4.10;;;;;;;31.88;29.47;95239.53;5013897;28;20222;-70
2022/06/03 11:58:39;;;;;;;4.45;4.05;;;;;;;31.63;29.21;95247.53;5041189;28;20202;-63
2022/06/03 12:01:11;;;;;;;4.82;4.43;;;;;;;31.54;29.04;95238.38;5041880;28;20613;-63
2022/06/03 12:03:43;;;;;;;4.45;4.05;;;;;;;31.81;29.22;95234.38;5008753;28;20226;-67
2022/06/03 12:06:20;;;;;;;6.47;4.10;;;;;;;31.88;29.41;95217.78;5036147;28;20236;-65
2022/06/03 12:09:01;;;;;;;4.65;4.18;;;;;;;31.39;29.01;95236.50;5028416;28;20227;-63
2022/06/03 12:14:33;;;;;;;5.50;4.45;;;;;;;32.33;28.43;95232.19;5037571;28;20305;-62
2022/06/03 12:17:22;;;;;;;6.15;4.25;;;;;;;32.78;27.87;95227.50;5048201;28;20226;-68
2022/06/03 12:19:50;;;;;;;5.57;4.65;;;;;;;33.01;28.19;95236.81;4998300;28;20223;-61
2022/06/03 12:22:31;;;;;;;5.05;4.20;;;;;;;31.91;27.76;95231.63;5013680;28;20225;-64
2022/06/03 12:25:31;;;;;;;5.05;3.80;;;;;;;30.84;29.05;95246.41;5012748;28;20253;-66
2022/06/03 12:27:57;;;;;;;4.47;3.92;;;;;;;30.96;28.63;95235.25;5010348;28;20272;-67
2022/06/03 12:30:45;;;;;;;4.75;4.03;;;;;;;31.28;28.99;95239.53;5010245;28;20265;-69
2022/06/03 12:33:31;;;;;;;7.28;3.88;;;;;;;31.19;28.80;95250.97;4998611;28;20313;-67
2022/06/03 12:35:56;;;;;;;4.30;3.90;;;;;;;30.99;27.75;95238.22;5002073;28;20230;-64
2022/06/03 12:38:23;;;;;;;6.20;3.80;;;;;;;31.01;28.67;95245.28;5010170;28;20237;-64
2022/06/03 12:40:49;;;;;;;5.65;3.55;;;;;;;31.23;28.44;95247.69;5006206;28;20620;-67
2022/06/03 12:43:28;;;;;;;5.85;4.38;;;;;;;31.36;28.96;95244.38;5042584;28;20201;-62
2022/06/03 12:46:05;;;;;;;5.45;4.75;;;;;;;31.24;29.22;95243.88;5006017;28;20222;-66
2022/06/03 12:48:43;;;;;;;6.07;4.25;;;;;;;30.98;28.68;95244.75;5008637;28;20272;-66
2022/06/03 12:51:17;;;;;;;4.72;3.92;;;;;;;30.29;29.38;95240.72;5005359;28;20241;-68
2022/06/03 12:53:45;;;;;;;4.05;3.63;;;;;;;30.28;29.26;95235.53;5040324;28;20293;-62
2022/06/03 12:56:26;;;;;;;4.13;3.60;;;;;;;30.46;28.29;95228.78;5038070;28;20223;-62
2022/06/03 12:59:31;;;;;;;4.18;3.78;;;;;;;30.51;29.28;95231.47;5042995;28;20226;-67
2022/06/03 13:02:01;;;;;;;3.85;3.50;;;;;;;30.50;29.07;95227.13;5044061;28;20218;-69
2022/06/03 13:04:38;;;;;;;3.85;3.53;;;;;;;29.93;29.19;95226.25;5012146;28;20212;-64